Highbridge, New York
Current Conditions -  °F | °C
As of 12:51 AM on Friday 28 Nov 2014 (Local Time) from KNYC Reporting Station
Clear Clear  
Wind Chill: 28°   Ceiling: Unl
Heat Index: 33°   Visibility: 10mi
Dew Point: 23°   Wind: 6mph
Humidity: 66%   Direction: 290°WNW
Pressure: 30.08"   Gusts: NA
Location:  40.8376°N, 73.9236°W
Report Text: KNYC 280551Z AUTO 29005KT 10SM CLR 01/M05 A3008 RMK AO2 SLP178 T00061050 10028 20006 53001 $
Loading
Personal Weather Stations






























Interactive Weather Map New forecast layout! Learn more

10-Day Weather Forecast

Advertisements
Track Severe Weather on mobile